sensor_id;sensor_type;location;lat;lon;timestamp;temperature;humidity
16532;DHT22;66872;63.142;14.482;2023-05-07T00:02:25;15.00;1.00
16532;DHT22;66872;63.142;14.482;2023-05-07T00:04:50;15.00;1.00
16532;DHT22;66872;63.142;14.482;2023-05-07T00:07:17;15.00;1.00
16532;DHT22;66872;63.142;14.482;2023-05-07T00:09:43;15.00;1.00
16532;DHT22;66872;63.142;14.482;2023-05-07T00:12:09;15.00;1.00
16532;DHT22;66872;63.142;14.482;2023-05-07T00:14:34;14.90;1.00
16532;DHT22;66872;63.142;14.482;2023-05-07T00:17:00;14.90;1.00
16532;DHT22;66872;63.142;14.482;2023-05-07T00:19:26;14.90;1.00
16532;DHT22;66872;63.142;14.482;2023-05-07T00:21:51;14.90;1.00
16532;DHT22;66872;63.142;14.482;2023-05-07T00:24:19;14.90;1.00
16532;DHT22;66872;63.142;14.482;2023-05-07T00:26:45;14.90;1.00
16532;DHT22;66872;63.142;14.482;2023-05-07T00:29:10;14.90;1.00
16532;DHT22;66872;63.142;14.482;2023-05-07T00:31:36;14.90;1.00
16532;DHT22;66872;63.142;14.482;2023-05-07T00:34:02;14.90;1.00
16532;DHT22;66872;63.142;14.482;2023-05-07T00:36:27;14.80;1.00
16532;DHT22;66872;63.142;14.482;2023-05-07T00:38:54;14.80;1.00
16532;DHT22;66872;63.142;14.482;2023-05-07T00:41:20;14.80;1.00
16532;DHT22;66872;63.142;14.482;2023-05-07T00:43:46;14.80;1.00
16532;DHT22;66872;63.142;14.482;2023-05-07T00:46:13;14.80;1.00
16532;DHT22;66872;63.142;14.482;2023-05-07T00:48:40;14.80;1.00
16532;DHT22;66872;63.142;14.482;2023-05-07T00:51:06;14.70;1.00
16532;DHT22;66872;63.142;14.482;2023-05-07T00:53:32;14.80;1.00
16532;DHT22;66872;63.142;14.482;2023-05-07T00:55:58;14.70;1.00
16532;DHT22;66872;63.142;14.482;2023-05-07T00:58:24;14.70;1.00
16532;DHT22;66872;63.142;14.482;2023-05-07T01:00:50;14.70;1.00
16532;DHT22;66872;63.142;14.482;2023-05-07T01:03:16;14.70;1.00
16532;DHT22;66872;63.142;14.482;2023-05-07T01:05:42;14.70;1.00
16532;DHT22;66872;63.142;14.482;2023-05-07T01:08:09;14.70;1.00
16532;DHT22;66872;63.142;14.482;2023-05-07T01:10:36;14.70;1.00
16532;DHT22;66872;63.142;14.482;2023-05-07T01:13:02;14.70;1.00
16532;DHT22;66872;63.142;14.482;2023-05-07T01:15:28;14.60;1.00
16532;DHT22;66872;63.142;14.482;2023-05-07T01:17:54;14.60;1.00
16532;DHT22;66872;63.142;14.482;2023-05-07T01:20:22;14.60;1.00
16532;DHT22;66872;63.142;14.482;2023-05-07T01:22:49;14.60;1.00
16532;DHT22;66872;63.142;14.482;2023-05-07T01:25:15;14.60;1.00
16532;DHT22;66872;63.142;14.482;2023-05-07T01:27:41;14.60;1.00
16532;DHT22;66872;63.142;14.482;2023-05-07T01:30:07;14.60;1.00
16532;DHT22;66872;63.142;14.482;2023-05-07T01:32:50;14.60;1.00
16532;DHT22;66872;63.142;14.482;2023-05-07T01:35:22;14.60;1.00
16532;DHT22;66872;63.142;14.482;2023-05-07T01:37:50;14.60;1.00
16532;DHT22;66872;63.142;14.482;2023-05-07T01:40:16;14.50;1.00
16532;DHT22;66872;63.142;14.482;2023-05-07T01:42:43;14.50;1.00
16532;DHT22;66872;63.142;14.482;2023-05-07T01:45:09;14.50;1.00
16532;DHT22;66872;63.142;14.482;2023-05-07T01:47:36;14.50;1.00
16532;DHT22;66872;63.142;14.482;2023-05-07T01:50:04;14.50;1.00
16532;DHT22;66872;63.142;14.482;2023-05-07T01:52:31;14.50;1.00
16532;DHT22;66872;63.142;14.482;2023-05-07T01:54:57;14.50;1.00
16532;DHT22;66872;63.142;14.482;2023-05-07T01:57:22;14.50;1.00
16532;DHT22;66872;63.142;14.482;2023-05-07T01:59:48;14.50;1.00
16532;DHT22;66872;63.142;14.482;2023-05-07T02:02:14;14.40;1.00
16532;DHT22;66872;63.142;14.482;2023-05-07T02:04:39;14.40;1.00
16532;DHT22;66872;63.142;14.482;2023-05-07T02:07:05;14.40;1.00
16532;DHT22;66872;63.142;14.482;2023-05-07T02:09:31;14.40;1.00
16532;DHT22;66872;63.142;14.482;2023-05-07T02:11:56;14.40;1.00
16532;DHT22;66872;63.142;14.482;2023-05-07T02:14:22;14.40;1.00
16532;DHT22;66872;63.142;14.482;2023-05-07T02:16:48;14.40;1.00
16532;DHT22;66872;63.142;14.482;2023-05-07T02:19:13;14.40;1.00
16532;DHT22;66872;63.142;14.482;2023-05-07T02:21:39;14.30;1.00
16532;DHT22;66872;63.142;14.482;2023-05-07T02:24:05;14.30;1.00
16532;DHT22;66872;63.142;14.482;2023-05-07T02:26:30;14.30;1.00
16532;DHT22;66872;63.142;14.482;2023-05-07T02:28:56;14.30;1.00
16532;DHT22;66872;63.142;14.482;2023-05-07T02:31:22;14.30;1.00
16532;DHT22;66872;63.142;14.482;2023-05-07T02:33:47;14.30;1.00
16532;DHT22;66872;63.142;14.482;2023-05-07T02:36:13;14.30;1.00
16532;DHT22;66872;63.142;14.482;2023-05-07T02:38:39;14.30;1.00
16532;DHT22;66872;63.142;14.482;2023-05-07T02:41:05;14.30;1.00
16532;DHT22;66872;63.142;14.482;2023-05-07T02:43:30;14.20;1.00
16532;DHT22;66872;63.142;14.482;2023-05-07T02:46:03;14.20;1.00
16532;DHT22;66872;63.142;14.482;2023-05-07T02:48:29;14.20;1.00
16532;DHT22;66872;63.142;14.482;2023-05-07T02:50:55;14.20;1.00
16532;DHT22;66872;63.142;14.482;2023-05-07T02:53:20;14.20;1.00
16532;DHT22;66872;63.142;14.482;2023-05-07T02:55:46;14.20;1.00
16532;DHT22;66872;63.142;14.482;2023-05-07T02:58:12;14.20;1.00
16532;DHT22;66872;63.142;14.482;2023-05-07T03:00:37;14.20;1.00
16532;DHT22;66872;63.142;14.482;2023-05-07T03:03:03;14.20;1.00
16532;DHT22;66872;63.142;14.482;2023-05-07T03:05:29;14.20;1.00
16532;DHT22;66872;63.142;14.482;2023-05-07T03:07:54;14.20;1.00
16532;DHT22;66872;63.142;14.482;2023-05-07T03:10:20;14.20;1.00
16532;DHT22;66872;63.142;14.482;2023-05-07T03:12:45;14.20;1.00
16532;DHT22;66872;63.142;14.482;2023-05-07T03:15:11;14.20;1.00
16532;DHT22;66872;63.142;14.482;2023-05-07T03:17:38;14.20;1.00
16532;DHT22;66872;63.142;14.482;2023-05-07T03:20:04;14.30;1.00
16532;DHT22;66872;63.142;14.482;2023-05-07T03:22:30;14.30;1.00
16532;DHT22;66872;63.142;14.482;2023-05-07T03:24:56;14.30;1.00
16532;DHT22;66872;63.142;14.482;2023-05-07T03:27:21;14.30;1.00
16532;DHT22;66872;63.142;14.482;2023-05-07T03:29:47;14.30;1.00
16532;DHT22;66872;63.142;14.482;2023-05-07T03:32:13;14.30;1.00
16532;DHT22;66872;63.142;14.482;2023-05-07T03:34:39;14.30;1.00
16532;DHT22;66872;63.142;14.482;2023-05-07T03:37:05;14.30;1.00
16532;DHT22;66872;63.142;14.482;2023-05-07T03:39:31;14.30;1.00
16532;DHT22;66872;63.142;14.482;2023-05-07T03:41:57;14.40;1.00
16532;DHT22;66872;63.142;14.482;2023-05-07T03:44:23;14.40;1.00
16532;DHT22;66872;63.142;14.482;2023-05-07T03:46:49;14.40;1.00
16532;DHT22;66872;63.142;14.482;2023-05-07T03:49:14;14.40;1.00
16532;DHT22;66872;63.142;14.482;2023-05-07T03:51:40;14.50;1.00
16532;DHT22;66872;63.142;14.482;2023-05-07T03:54:06;14.50;1.00
16532;DHT22;66872;63.142;14.482;2023-05-07T03:56:32;14.50;1.00
16532;DHT22;66872;63.142;14.482;2023-05-07T03:58:57;14.50;1.00
16532;DHT22;66872;63.142;14.482;2023-05-07T04:01:23;14.50;1.00
16532;DHT22;66872;63.142;14.482;2023-05-07T04:03:49;14.50;1.00
16532;DHT22;66872;63.142;14.482;2023-05-07T04:06:15;14.60;1.00
16532;DHT22;66872;63.142;14.482;2023-05-07T04:08:42;14.60;1.00
16532;DHT22;66872;63.142;14.482;2023-05-07T04:11:08;14.60;1.00
16532;DHT22;66872;63.142;14.482;2023-05-07T04:13:33;14.60;1.00
16532;DHT22;66872;63.142;14.482;2023-05-07T04:16:01;14.70;1.00
16532;DHT22;66872;63.142;14.482;2023-05-07T04:18:28;14.70;1.00
16532;DHT22;66872;63.142;14.482;2023-05-07T04:20:54;14.70;1.00
16532;DHT22;66872;63.142;14.482;2023-05-07T04:23:20;14.80;1.00
16532;DHT22;66872;63.142;14.482;2023-05-07T04:25:46;14.80;1.00
16532;DHT22;66872;63.142;14.482;2023-05-07T04:28:12;14.80;1.00
16532;DHT22;66872;63.142;14.482;2023-05-07T04:30:38;14.80;1.00
16532;DHT22;66872;63.142;14.482;2023-05-07T04:33:04;14.80;1.00
16532;DHT22;66872;63.142;14.482;2023-05-07T04:35:30;14.90;1.00
16532;DHT22;66872;63.142;14.482;2023-05-07T04:37:56;15.00;1.00
16532;DHT22;66872;63.142;14.482;2023-05-07T04:40:21;15.00;1.00
16532;DHT22;66872;63.142;14.482;2023-05-07T04:42:47;15.10;1.00
16532;DHT22;66872;63.142;14.482;2023-05-07T04:45:13;15.30;1.00
16532;DHT22;66872;63.142;14.482;2023-05-07T04:47:38;15.40;1.00
16532;DHT22;66872;63.142;14.482;2023-05-07T04:50:06;15.60;1.00
16532;DHT22;66872;63.142;14.482;2023-05-07T04:52:31;15.80;1.00
16532;DHT22;66872;63.142;14.482;2023-05-07T04:54:59;15.90;1.00
16532;DHT22;66872;63.142;14.482;2023-05-07T04:57:26;16.10;1.00
16532;DHT22;66872;63.142;14.482;2023-05-07T04:59:52;16.10;1.00
16532;DHT22;66872;63.142;14.482;2023-05-07T05:02:17;16.10;1.00
16532;DHT22;66872;63.142;14.482;2023-05-07T05:04:43;16.10;1.00
16532;DHT22;66872;63.142;14.482;2023-05-07T05:07:08;16.10;1.00
16532;DHT22;66872;63.142;14.482;2023-05-07T05:09:34;16.10;1.00
16532;DHT22;66872;63.142;14.482;2023-05-07T05:12:00;16.20;1.00
16532;DHT22;66872;63.142;14.482;2023-05-07T05:14:25;16.10;1.00
16532;DHT22;66872;63.142;14.482;2023-05-07T05:16:51;16.10;1.00
16532;DHT22;66872;63.142;14.482;2023-05-07T05:19:17;16.20;1.00
16532;DHT22;66872;63.142;14.482;2023-05-07T05:21:42;16.30;1.00
16532;DHT22;66872;63.142;14.482;2023-05-07T05:24:08;16.30;1.00
16532;DHT22;66872;63.142;14.482;2023-05-07T05:26:34;16.40;1.00
16532;DHT22;66872;63.142;14.482;2023-05-07T05:29:00;16.40;1.00
16532;DHT22;66872;63.142;14.482;2023-05-07T05:31:26;16.40;1.00
16532;DHT22;66872;63.142;14.482;2023-05-07T05:33:51;16.40;1.00
16532;DHT22;66872;63.142;14.482;2023-05-07T05:36:17;16.50;1.00
16532;DHT22;66872;63.142;14.482;2023-05-07T05:38:43;16.50;1.00
16532;DHT22;66872;63.142;14.482;2023-05-07T05:41:09;16.60;1.00
16532;DHT22;66872;63.142;14.482;2023-05-07T05:43:35;16.70;1.00
16532;DHT22;66872;63.142;14.482;2023-05-07T05:46:01;16.80;1.00
16532;DHT22;66872;63.142;14.482;2023-05-07T05:48:28;17.00;1.00
16532;DHT22;66872;63.142;14.482;2023-05-07T05:50:54;17.00;1.00
16532;DHT22;66872;63.142;14.482;2023-05-07T05:53:19;17.10;1.00
16532;DHT22;66872;63.142;14.482;2023-05-07T05:55:45;17.20;1.00
16532;DHT22;66872;63.142;14.482;2023-05-07T05:58:11;17.30;1.00
16532;DHT22;66872;63.142;14.482;2023-05-07T06:00:36;17.40;1.00
16532;DHT22;66872;63.142;14.482;2023-05-07T06:03:02;17.50;1.00
16532;DHT22;66872;63.142;14.482;2023-05-07T06:05:28;17.60;1.00
16532;DHT22;66872;63.142;14.482;2023-05-07T06:07:53;17.60;1.00
16532;DHT22;66872;63.142;14.482;2023-05-07T06:10:19;17.70;1.00
16532;DHT22;66872;63.142;14.482;2023-05-07T06:12:45;17.80;1.00
16532;DHT22;66872;63.142;14.482;2023-05-07T06:15:10;17.80;1.00
16532;DHT22;66872;63.142;14.482;2023-05-07T06:17:36;17.80;1.00
16532;DHT22;66872;63.142;14.482;2023-05-07T06:20:02;18.00;1.00
16532;DHT22;66872;63.142;14.482;2023-05-07T06:22:27;18.10;1.00
16532;DHT22;66872;63.142;14.482;2023-05-07T06:24:53;18.20;1.00
16532;DHT22;66872;63.142;14.482;2023-05-07T06:27:19;18.30;1.00
16532;DHT22;66872;63.142;14.482;2023-05-07T06:29:44;18.30;1.00
16532;DHT22;66872;63.142;14.482;2023-05-07T06:32:12;18.20;1.00
16532;DHT22;66872;63.142;14.482;2023-05-07T06:34:39;18.20;1.00
16532;DHT22;66872;63.142;14.482;2023-05-07T06:37:05;18.30;1.00
16532;DHT22;66872;63.142;14.482;2023-05-07T06:39:31;18.40;1.00
16532;DHT22;66872;63.142;14.482;2023-05-07T06:41:57;18.50;1.00
16532;DHT22;66872;63.142;14.482;2023-05-07T06:44:23;18.60;1.00
16532;DHT22;66872;63.142;14.482;2023-05-07T06:46:48;18.70;1.00
16532;DHT22;66872;63.142;14.482;2023-05-07T06:49:14;18.70;1.00
16532;DHT22;66872;63.142;14.482;2023-05-07T06:51:40;18.80;1.00
16532;DHT22;66872;63.142;14.482;2023-05-07T06:54:05;18.80;1.00
16532;DHT22;66872;63.142;14.482;2023-05-07T06:56:32;18.80;1.00
16532;DHT22;66872;63.142;14.482;2023-05-07T06:58:59;19.00;1.00
16532;DHT22;66872;63.142;14.482;2023-05-07T07:01:24;19.00;1.00
16532;DHT22;66872;63.142;14.482;2023-05-07T07:03:50;19.00;1.00
16532;DHT22;66872;63.142;14.482;2023-05-07T07:06:16;19.10;1.00
16532;DHT22;66872;63.142;14.482;2023-05-07T07:08:42;19.10;1.00
16532;DHT22;66872;63.142;14.482;2023-05-07T07:11:09;19.20;1.00
16532;DHT22;66872;63.142;14.482;2023-05-07T07:13:35;19.20;1.00
16532;DHT22;66872;63.142;14.482;2023-05-07T07:16:01;19.30;1.00
16532;DHT22;66872;63.142;14.482;2023-05-07T07:18:27;19.30;1.00
16532;DHT22;66872;63.142;14.482;2023-05-07T07:20:53;19.40;1.00
16532;DHT22;66872;63.142;14.482;2023-05-07T07:23:19;19.40;1.00
16532;DHT22;66872;63.142;14.482;2023-05-07T07:25:45;19.50;1.00
16532;DHT22;66872;63.142;14.482;2023-05-07T07:28:10;19.50;1.00
16532;DHT22;66872;63.142;14.482;2023-05-07T07:30:37;19.50;1.00
16532;DHT22;66872;63.142;14.482;2023-05-07T07:33:03;19.50;1.00
16532;DHT22;66872;63.142;14.482;2023-05-07T07:35:29;19.50;1.00
16532;DHT22;66872;63.142;14.482;2023-05-07T07:37:55;19.50;1.00
16532;DHT22;66872;63.142;14.482;2023-05-07T07:40:21;19.50;1.00
16532;DHT22;66872;63.142;14.482;2023-05-07T07:42:47;19.50;1.00
16532;DHT22;66872;63.142;14.482;2023-05-07T07:45:13;19.50;1.00
16532;DHT22;66872;63.142;14.482;2023-05-07T07:47:39;19.50;1.00
16532;DHT22;66872;63.142;14.482;2023-05-07T07:50:06;19.50;1.00
16532;DHT22;66872;63.142;14.482;2023-05-07T07:52:31;19.50;1.00
16532;DHT22;66872;63.142;14.482;2023-05-07T07:54:57;19.50;1.00
16532;DHT22;66872;63.142;14.482;2023-05-07T07:57:23;19.50;1.00
16532;DHT22;66872;63.142;14.482;2023-05-07T07:59:49;19.60;1.00
16532;DHT22;66872;63.142;14.482;2023-05-07T08:02:15;19.60;1.00
16532;DHT22;66872;63.142;14.482;2023-05-07T08:04:41;19.60;1.00
16532;DHT22;66872;63.142;14.482;2023-05-07T08:07:09;19.60;1.00
16532;DHT22;66872;63.142;14.482;2023-05-07T08:09:35;19.60;1.00
16532;DHT22;66872;63.142;14.482;2023-05-07T08:12:01;19.50;1.00
16532;DHT22;66872;63.142;14.482;2023-05-07T08:14:27;19.50;1.00
16532;DHT22;66872;63.142;14.482;2023-05-07T08:16:54;19.60;1.00
16532;DHT22;66872;63.142;14.482;2023-05-07T08:19:20;19.50;1.00
16532;DHT22;66872;63.142;14.482;2023-05-07T08:21:47;19.50;1.00
16532;DHT22;66872;63.142;14.482;2023-05-07T08:24:16;19.50;1.00
16532;DHT22;66872;63.142;14.482;2023-05-07T08:26:43;19.60;1.00
16532;DHT22;66872;63.142;14.482;2023-05-07T08:29:08;19.60;1.00
16532;DHT22;66872;63.142;14.482;2023-05-07T08:31:34;19.60;1.00
16532;DHT22;66872;63.142;14.482;2023-05-07T08:34:00;19.60;1.00
16532;DHT22;66872;63.142;14.482;2023-05-07T08:36:26;19.60;1.00
16532;DHT22;66872;63.142;14.482;2023-05-07T08:38:52;19.70;1.00
16532;DHT22;66872;63.142;14.482;2023-05-07T08:41:18;19.70;1.00
16532;DHT22;66872;63.142;14.482;2023-05-07T08:43:47;19.70;1.00
16532;DHT22;66872;63.142;14.482;2023-05-07T08:46:18;19.70;1.00
16532;DHT22;66872;63.142;14.482;2023-05-07T08:48:44;19.80;1.00
16532;DHT22;66872;63.142;14.482;2023-05-07T08:51:14;19.80;1.00
16532;DHT22;66872;63.142;14.482;2023-05-07T08:53:41;19.80;1.00
16532;DHT22;66872;63.142;14.482;2023-05-07T08:56:08;19.80;1.00
16532;DHT22;66872;63.142;14.482;2023-05-07T08:58:34;19.80;1.00
16532;DHT22;66872;63.142;14.482;2023-05-07T09:01:15;19.80;1.00
16532;DHT22;66872;63.142;14.482;2023-05-07T09:03:44;19.80;1.00
16532;DHT22;66872;63.142;14.482;2023-05-07T09:06:10;19.80;1.00
16532;DHT22;66872;63.142;14.482;2023-05-07T09:08:36;19.80;1.00
16532;DHT22;66872;63.142;14.482;2023-05-07T09:11:02;19.80;1.00
16532;DHT22;66872;63.142;14.482;2023-05-07T09:13:29;19.70;1.00
16532;DHT22;66872;63.142;14.482;2023-05-07T09:15:55;19.70;1.00
16532;DHT22;66872;63.142;14.482;2023-05-07T09:18:23;19.70;1.00
16532;DHT22;66872;63.142;14.482;2023-05-07T09:20:49;19.60;1.00
16532;DHT22;66872;63.142;14.482;2023-05-07T09:23:14;19.60;1.00
16532;DHT22;66872;63.142;14.482;2023-05-07T09:25:40;19.50;1.00
16532;DHT22;66872;63.142;14.482;2023-05-07T09:28:06;19.50;1.00
16532;DHT22;66872;63.142;14.482;2023-05-07T09:30:33;19.50;1.00
16532;DHT22;66872;63.142;14.482;2023-05-07T09:33:01;19.40;1.00
16532;DHT22;66872;63.142;14.482;2023-05-07T09:35:27;19.40;1.00
16532;DHT22;66872;63.142;14.482;2023-05-07T09:37:55;19.40;1.00
16532;DHT22;66872;63.142;14.482;2023-05-07T09:40:25;19.30;1.00
16532;DHT22;66872;63.142;14.482;2023-05-07T09:42:51;19.30;1.00
16532;DHT22;66872;63.142;14.482;2023-05-07T09:45:25;19.20;1.00
16532;DHT22;66872;63.142;14.482;2023-05-07T09:47:54;19.20;1.00
16532;DHT22;66872;63.142;14.482;2023-05-07T09:50:35;19.20;1.00
16532;DHT22;66872;63.142;14.482;2023-05-07T09:53:03;19.10;1.00
16532;DHT22;66872;63.142;14.482;2023-05-07T09:55:29;19.10;1.00
16532;DHT22;66872;63.142;14.482;2023-05-07T09:57:55;19.10;1.00
16532;DHT22;66872;63.142;14.482;2023-05-07T10:00:22;19.10;1.00
16532;DHT22;66872;63.142;14.482;2023-05-07T10:02:51;19.00;1.00
16532;DHT22;66872;63.142;14.482;2023-05-07T10:05:21;19.00;1.00
16532;DHT22;66872;63.142;14.482;2023-05-07T10:07:47;19.00;1.00
16532;DHT22;66872;63.142;14.482;2023-05-07T10:10:14;19.00;1.00
16532;DHT22;66872;63.142;14.482;2023-05-07T10:12:41;18.90;1.00
16532;DHT22;66872;63.142;14.482;2023-05-07T10:15:07;18.90;1.00
16532;DHT22;66872;63.142;14.482;2023-05-07T10:17:38;18.90;1.00
16532;DHT22;66872;63.142;14.482;2023-05-07T10:20:04;18.90;1.00
16532;DHT22;66872;63.142;14.482;2023-05-07T10:22:37;18.80;1.00
16532;DHT22;66872;63.142;14.482;2023-05-07T10:25:09;18.80;1.00
16532;DHT22;66872;63.142;14.482;2023-05-07T10:27:38;18.80;1.00
16532;DHT22;66872;63.142;14.482;2023-05-07T10:33:10;18.80;1.00
16532;DHT22;66872;63.142;14.482;2023-05-07T10:35:42;18.80;1.00
16532;DHT22;66872;63.142;14.482;2023-05-07T10:38:09;18.80;1.00
16532;DHT22;66872;63.142;14.482;2023-05-07T10:40:35;18.70;1.00
16532;DHT22;66872;63.142;14.482;2023-05-07T10:43:04;18.70;1.00
16532;DHT22;66872;63.142;14.482;2023-05-07T10:45:31;18.70;1.00
16532;DHT22;66872;63.142;14.482;2023-05-07T10:50:31;18.60;1.00
16532;DHT22;66872;63.142;14.482;2023-05-07T10:53:21;18.60;1.00
16532;DHT22;66872;63.142;14.482;2023-05-07T10:55:48;18.60;1.00
16532;DHT22;66872;63.142;14.482;2023-05-07T10:58:29;18.50;1.00
16532;DHT22;66872;63.142;14.482;2023-05-07T11:00:59;18.50;1.00
16532;DHT22;66872;63.142;14.482;2023-05-07T11:03:26;18.50;1.00
16532;DHT22;66872;63.142;14.482;2023-05-07T11:06:15;18.50;1.00
16532;DHT22;66872;63.142;14.482;2023-05-07T11:11:18;18.40;1.00
16532;DHT22;66872;63.142;14.482;2023-05-07T11:16:41;18.40;1.00
16532;DHT22;66872;63.142;14.482;2023-05-07T11:19:07;18.30;1.00
16532;DHT22;66872;63.142;14.482;2023-05-07T11:24:02;18.40;1.00
16532;DHT22;66872;63.142;14.482;2023-05-07T11:26:30;18.40;1.00
16532;DHT22;66872;63.142;14.482;2023-05-07T11:28:57;18.30;1.00
16532;DHT22;66872;63.142;14.482;2023-05-07T11:31:26;18.30;1.00
16532;DHT22;66872;63.142;14.482;2023-05-07T11:33:54;18.40;1.00
16532;DHT22;66872;63.142;14.482;2023-05-07T11:36:21;18.40;1.00
16532;DHT22;66872;63.142;14.482;2023-05-07T11:38:47;18.40;1.00
16532;DHT22;66872;63.142;14.482;2023-05-07T11:41:13;18.40;1.00
16532;DHT22;66872;63.142;14.482;2023-05-07T11:43:53;18.30;1.00
16532;DHT22;66872;63.142;14.482;2023-05-07T11:46:20;18.30;1.00
16532;DHT22;66872;63.142;14.482;2023-05-07T11:48:46;18.30;1.00
16532;DHT22;66872;63.142;14.482;2023-05-07T11:51:12;18.30;1.00
16532;DHT22;66872;63.142;14.482;2023-05-07T11:53:42;18.30;1.00
16532;DHT22;66872;63.142;14.482;2023-05-07T11:56:09;18.30;1.00
16532;DHT22;66872;63.142;14.482;2023-05-07T11:58:35;18.30;1.00
16532;DHT22;66872;63.142;14.482;2023-05-07T12:01:01;18.20;1.00
16532;DHT22;66872;63.142;14.482;2023-05-07T12:03:26;18.20;1.00
16532;DHT22;66872;63.142;14.482;2023-05-07T12:05:52;18.20;1.00
16532;DHT22;66872;63.142;14.482;2023-05-07T12:08:19;18.20;1.00
16532;DHT22;66872;63.142;14.482;2023-05-07T12:10:49;18.20;1.00
16532;DHT22;66872;63.142;14.482;2023-05-07T12:15:42;18.10;1.00
16532;DHT22;66872;63.142;14.482;2023-05-07T12:18:08;18.10;1.00
16532;DHT22;66872;63.142;14.482;2023-05-07T12:20:35;18.10;1.00
16532;DHT22;66872;63.142;14.482;2023-05-07T12:23:02;18.10;1.00
16532;DHT22;66872;63.142;14.482;2023-05-07T12:25:35;18.10;1.00
16532;DHT22;66872;63.142;14.482;2023-05-07T12:28:04;18.10;1.00
16532;DHT22;66872;63.142;14.482;2023-05-07T12:30:32;18.10;1.00
16532;DHT22;66872;63.142;14.482;2023-05-07T12:32:58;18.10;1.00
16532;DHT22;66872;63.142;14.482;2023-05-07T12:35:32;18.10;1.00
16532;DHT22;66872;63.142;14.482;2023-05-07T12:38:01;18.10;1.00
16532;DHT22;66872;63.142;14.482;2023-05-07T12:40:56;18.10;1.00
16532;DHT22;66872;63.142;14.482;2023-05-07T12:43:26;18.10;1.00
16532;DHT22;66872;63.142;14.482;2023-05-07T12:45:54;18.10;1.00
16532;DHT22;66872;63.142;14.482;2023-05-07T12:48:21;18.00;1.00
16532;DHT22;66872;63.142;14.482;2023-05-07T12:50:53;18.00;1.00
16532;DHT22;66872;63.142;14.482;2023-05-07T12:53:22;18.00;1.00
16532;DHT22;66872;63.142;14.482;2023-05-07T12:55:49;18.00;1.00
16532;DHT22;66872;63.142;14.482;2023-05-07T12:58:21;18.00;1.00
16532;DHT22;66872;63.142;14.482;2023-05-07T13:00:49;18.00;1.00
16532;DHT22;66872;63.142;14.482;2023-05-07T13:03:42;18.00;1.00
16532;DHT22;66872;63.142;14.482;2023-05-07T13:06:13;18.00;1.00
16532;DHT22;66872;63.142;14.482;2023-05-07T13:08:40;18.00;1.00
16532;DHT22;66872;63.142;14.482;2023-05-07T13:11:09;18.00;1.00
16532;DHT22;66872;63.142;14.482;2023-05-07T13:13:37;18.00;1.00
16532;DHT22;66872;63.142;14.482;2023-05-07T13:16:04;18.00;1.00
16532;DHT22;66872;63.142;14.482;2023-05-07T13:18:32;18.00;1.00
16532;DHT22;66872;63.142;14.482;2023-05-07T13:20:58;18.00;1.00
16532;DHT22;66872;63.142;14.482;2023-05-07T13:23:24;17.90;1.00
16532;DHT22;66872;63.142;14.482;2023-05-07T13:25:50;17.90;1.00
16532;DHT22;66872;63.142;14.482;2023-05-07T13:28:18;17.90;1.00
16532;DHT22;66872;63.142;14.482;2023-05-07T13:30:44;17.90;1.00
16532;DHT22;66872;63.142;14.482;2023-05-07T13:33:10;17.90;1.00
16532;DHT22;66872;63.142;14.482;2023-05-07T13:35:35;17.90;1.00
16532;DHT22;66872;63.142;14.482;2023-05-07T13:38:01;17.90;1.00
16532;DHT22;66872;63.142;14.482;2023-05-07T13:40:27;17.90;1.00
16532;DHT22;66872;63.142;14.482;2023-05-07T13:42:53;17.90;1.00
16532;DHT22;66872;63.142;14.482;2023-05-07T13:45:19;17.90;1.00
16532;DHT22;66872;63.142;14.482;2023-05-07T13:47:46;17.90;1.00
16532;DHT22;66872;63.142;14.482;2023-05-07T13:50:12;17.90;1.00
16532;DHT22;66872;63.142;14.482;2023-05-07T13:52:43;17.90;1.00
16532;DHT22;66872;63.142;14.482;2023-05-07T13:55:09;17.90;1.00
16532;DHT22;66872;63.142;14.482;2023-05-07T13:57:36;17.80;1.00
16532;DHT22;66872;63.142;14.482;2023-05-07T14:00:03;17.80;1.00
16532;DHT22;66872;63.142;14.482;2023-05-07T14:02:30;17.80;1.00
16532;DHT22;66872;63.142;14.482;2023-05-07T14:04:56;17.80;1.00
16532;DHT22;66872;63.142;14.482;2023-05-07T14:07:22;17.80;1.00
16532;DHT22;66872;63.142;14.482;2023-05-07T14:09:47;17.80;1.00
16532;DHT22;66872;63.142;14.482;2023-05-07T14:12:13;17.80;1.00
16532;DHT22;66872;63.142;14.482;2023-05-07T14:14:39;17.80;1.00
16532;DHT22;66872;63.142;14.482;2023-05-07T14:17:04;17.80;1.00
16532;DHT22;66872;63.142;14.482;2023-05-07T14:19:30;17.80;1.00
16532;DHT22;66872;63.142;14.482;2023-05-07T14:21:55;17.80;1.00
16532;DHT22;66872;63.142;14.482;2023-05-07T14:24:21;17.80;1.00
16532;DHT22;66872;63.142;14.482;2023-05-07T14:26:47;17.70;1.00
16532;DHT22;66872;63.142;14.482;2023-05-07T14:29:12;17.70;1.00
16532;DHT22;66872;63.142;14.482;2023-05-07T14:31:38;17.70;1.00
16532;DHT22;66872;63.142;14.482;2023-05-07T14:34:04;17.70;1.00
16532;DHT22;66872;63.142;14.482;2023-05-07T14:36:29;17.70;1.00
16532;DHT22;66872;63.142;14.482;2023-05-07T14:38:57;17.70;1.00
16532;DHT22;66872;63.142;14.482;2023-05-07T14:41:24;17.70;1.00
16532;DHT22;66872;63.142;14.482;2023-05-07T14:43:50;17.70;1.00
16532;DHT22;66872;63.142;14.482;2023-05-07T14:46:20;17.70;1.00
16532;DHT22;66872;63.142;14.482;2023-05-07T14:48:45;17.70;1.00
16532;DHT22;66872;63.142;14.482;2023-05-07T14:51:12;17.70;1.00
16532;DHT22;66872;63.142;14.482;2023-05-07T14:53:38;17.70;1.00
16532;DHT22;66872;63.142;14.482;2023-05-07T14:56:04;17.70;1.00
16532;DHT22;66872;63.142;14.482;2023-05-07T14:58:31;17.70;1.00
16532;DHT22;66872;63.142;14.482;2023-05-07T15:00:57;17.70;1.00
16532;DHT22;66872;63.142;14.482;2023-05-07T15:03:22;17.70;1.00
16532;DHT22;66872;63.142;14.482;2023-05-07T15:05:48;17.70;1.00
16532;DHT22;66872;63.142;14.482;2023-05-07T15:08:17;17.70;1.00
16532;DHT22;66872;63.142;14.482;2023-05-07T15:10:42;17.70;1.00
16532;DHT22;66872;63.142;14.482;2023-05-07T15:13:09;17.70;1.00
16532;DHT22;66872;63.142;14.482;2023-05-07T15:15:34;17.70;1.00
16532;DHT22;66872;63.142;14.482;2023-05-07T15:18:00;17.70;1.00
16532;DHT22;66872;63.142;14.482;2023-05-07T15:20:26;17.70;1.00
16532;DHT22;66872;63.142;14.482;2023-05-07T15:22:52;17.70;1.00
16532;DHT22;66872;63.142;14.482;2023-05-07T15:25:18;17.70;1.00
16532;DHT22;66872;63.142;14.482;2023-05-07T15:27:43;17.70;1.00
16532;DHT22;66872;63.142;14.482;2023-05-07T15:30:09;17.70;1.00
16532;DHT22;66872;63.142;14.482;2023-05-07T15:32:37;17.70;1.00
16532;DHT22;66872;63.142;14.482;2023-05-07T15:35:04;17.60;1.00
16532;DHT22;66872;63.142;14.482;2023-05-07T15:37:33;17.70;1.00
16532;DHT22;66872;63.142;14.482;2023-05-07T15:39:59;17.70;1.00
16532;DHT22;66872;63.142;14.482;2023-05-07T15:42:27;17.60;1.00
16532;DHT22;66872;63.142;14.482;2023-05-07T15:44:53;17.70;1.00